Terminal Aerodrome Forecast
Issued by NWS Quad Cities IA IL

Home | Current Version | Previous Version | Text Only | Print | Product List | Glossary Off
Versions: 1 2 3 4 5 6 7 8 9 10 11 12 13 14 15 16 17 18 19 20 21 22 23 24

197
FTUS43 KDVN 260520
TAFDBQ
TAF
KDBQ 260520Z 2606/2706 14005KT P6SM BKN120
     FM261600 15009KT P6SM VCTS BKN050CB
     FM262000 14007KT 6SM HZ OVC035
     FM270000 VRB03KT P6SM BKN040=

USA.gov is the U.S. government's official web portal to all federal, state and local government web resources and services.